This is the latest recevied weather packets stored in our database for station/object N5PLO-10. If no packets are shown the sender has not sent any weather packets the latest 10 day(s).
| Time | Temp. | Humidity | Pressure | Rain* | Wind** | Luminosity | Snow |
|---|---|---|---|---|---|---|---|
| 1777494892 | 32.22° C | 68% | - | 0 mm | - | - | - |
| 1777494589 | 31.67° C | 69% | - | 0 mm | - | - | - |
| 1777494287 | 32.22° C | 68% | - | 0 mm | - | - | - |
| 1777493983 | 32.22° C | 69% | - | 0 mm | - | - | - |
| 1777493681 | 32.78° C | 66% | - | 0 mm | - | - | - |
| 1777493379 | 32.22° C | 67% | - | 0 mm | - | - | - |
| 1777493075 | 32.22° C | 68% | - | 0 mm | - | - | - |
| 1777492772 | 32.78° C | 66% | - | 0 mm | - | - | - |
| 1777492467 | 32.78° C | 67% | - | 0 mm | - | - | - |
| 1777492164 | 32.78° C | 67% | - | 0 mm | - | - | - |
| 1777491861 | 32.78° C | 68% | - | 0 mm | - | - | - |
| 1777491557 | 32.22° C | 69% | - | 0 mm | - | - | - |
| 1777491255 | 31.11° C | 70% | - | 0 mm | - | - | - |
| 1777490951 | 31.11° C | 69% | - | 0 mm | - | - | - |
| 1777490647 | 31.67° C | 68% | - | 0 mm | - | - | - |
| 1777490343 | 31.67° C | 69% | - | 0 mm | - | - | - |
| 1777490041 | 31.67° C | 69% | - | 0 mm | - | - | - |
| 1777489738 | 31.11° C | 70% | - | 0 mm | - | - | - |
| 1777489435 | 31.67° C | 68% | - | 0 mm | - | - | - |
| 1777489132 | 31.67° C | 69% | - | 0 mm | - | - | - |
| 1777488829 | 31.67° C | 70% | - | 0 mm | - | - | - |
| 1777488527 | 31.67° C | 69% | - | 0 mm | - | - | - |
| 1777488224 | 31.67° C | 71% | - | 0 mm | - | - | - |
| 1777487922 | 31.67° C | 69% | - | 0 mm | - | - | - |
| 1777487620 | 32.22° C | 67% | - | 0 mm | - | - | - |
* Rain latest hour (hover to see other rain measurements)
** Current wind speed in m/s (hover to see current wind gust speed)